Okeene, Oklahoma
Current Conditions -  °F | °C
As of 1:15 PM on Friday 21 Nov 2014 (Local Time) from KJWG Reporting Station
Haze Haze  
Wind Chill: 44°   Ceiling: 1900
Heat Index: 44°   Visibility: 4mi
Dew Point: 43°   Wind: 0mph
Humidity: 97%   Direction: NA
Pressure: 30.04"   Gusts: NA
Location:  36.12°N, 98.32°W
Report Text: KJWG 211915Z AUTO 00000KT 4SM BR OVC019 07/06 A3004 RMK AO2 T00670062
Loading
Personal Weather Stations






























Interactive Weather Map New forecast layout! Learn more

10-Day Weather Forecast

Advertisements
Track Severe Weather on mobile